GMMI

Mogador Airport

Essaouira, Morocco
METAR GMMI 172300Z AUTO 02010KT 9999NDV ////// 21/18 Q1013 NOSIG
Observed Flight Rules
Jul-17 @ 23:00 UTC (23 minutes ago)
Wind
20° at 10 knots
Temperatures Readings
Current 21°C / 70°F
Dewpoint 18°C / 64°F
Humidity 83%
Altimeter 29.91" Hg
Pressure 1013 hPa
Elevation 8
METAR GMMI 172300Z AUTO 02010KT 9999NDV ////// 21/18 Q1013 NOSIG
Observed Flight Rules
Jul-17 @ 23:00 UTC
(23 minutes ago)
Wind
20° at 10 knots
Temperature Dewpoint
21°C / 70°F 18°C / 64°F
Humidity Altimeter Pressure
83% 29.91" Hg 1013 hPa